x

Pensacola - 115nm Ese Of Pensacola, Fl (42039) Wave Buoy

6:50am - Thu 24th Apr 2014 All times are CDT. -5 hours from GMT.

  • Sig Wave height 0.7ft
  • Average Period 4s
  • Wind
    2mph, 4mph gusts
  • Sea Temp 70°f
  • Air Temp 70°f
  • Sea Pressure 1015.5mb
  • Pensacola - 115nm Ese Of Pensacola, Fl
  • Pensacola - 115nm Ese Of Pensacola, Fl

More Historic Weather Station data

Upgrade to MSW Pro to gain access to the past 30 days of data for over 8000 Wavebouys and Weather Stations around the globe.

Join Pro

Comparision Forecast

View Surf forecast
   
Thu 04/24 6:50am 0.7ft  -  4s 2 4 mph 1015.5mb 70f 70f
5:50am 0.7ft  -  4s 4
mph
1014.7mb 70f 69f
4:50am 1ft 4s 4s 2 4 mph 1014.4mb 71f 69f
3:50am 1ft 4s 4s 2
mph
1014.1mb 71f 69f
2:50am 0.7ft  -  4s 2
mph
1013.9mb 71f 69f
1:50am 0.7ft  -  4s  -  2 mph 1014.2mb 71f 70f
12:50am 1ft 4s 4s  -  mph 1014.6mb 71f 70f
Wed 04/23 11:50pm 1ft 4s 4s 2 4 mph 1014.9mb 71f 70f
10:50pm 1ft 4s 4s 2 4 mph 1014.9mb 71f 70f
9:50pm 1.3ft 4s 4s 4
mph
1014.7mb 71f 70f
8:50pm 1.3ft 4s 4s 2
mph
1014.3mb 72f 70f
7:50pm 1.3ft 4s 4s 4
mph
1013.8mb 73f 71f
6:50pm 1.3ft 4s 4s 4
mph
1013.6mb 72f 71f
5:50pm 1.3ft 4s 4s 4 7 mph 1013.7mb 73f 71f
4:50pm 1.3ft 4s 4s 2 4 mph 1013.6mb 73f 71f
3:50pm 1.3ft 4s 4s 2 4 mph 1013.8mb 72f 71f
2:50pm 1.3ft 4s 4s 4 7 mph 1014.2mb 72f 69f
1:50pm 1.3ft 4s 4s 4 7 mph 1014.7mb 71f 69f
12:50pm 1.3ft 4s 4s 7
mph
1015.1mb 71f 69f
11:50am 1.6ft 4s 4s 4 7 mph 1015.5mb 70f 69f
10:50am 1.3ft 4s 4s 7
mph
1015.8mb 69f 69f
9:50am 1.3ft 4s 4s 4 7 mph 1015.6mb 69f 69f
8:50am 1.3ft 4s 4s 4 7 mph 1015.1mb 69f 69f
7:50am 1.3ft 4s 4s 7
mph
1014.8mb 69f 69f
6:50am 1.3ft 4s 4s 7 9 mph 1014.4mb 69f 68f
5:50am 1.3ft 4s 4s 7 9 mph 1013.8mb 69f 68f
4:50am 1.6ft 4s 3s 7 9 mph 1013.3mb 69f 68f
3:50am 1.3ft 4s 3s 9
mph
1013.1mb 69f 68f
2:50am 1.6ft 4s 3s 9 11 mph 1013.2mb 69f 68f
1:50am 1.6ft 3s 3s 9 11 mph 1013.5mb 69f 68f
12:50am 1.3ft 4s 3s 11 13 mph 1013.8mb 68f 68f
Tue 04/22 11:50pm 1.3ft 3s 3s 11
mph
1013.8mb 68f 68f
10:50pm 1.3ft 3s 3s 11 13 mph 1013.9mb 69f 69f
9:50pm 1.3ft 3s 3s 11 13 mph 1014mb 71f 69f
8:50pm 1ft 3s 3s 11 13 mph 1013.5mb 71f 68f
7:50pm 1ft 3s 3s 11 13 mph 1013.2mb 70f 68f
6:50pm 1ft 2s 3s 13 16 mph 1012.9mb 69f 68f
5:50pm 0.7ft  -  3s 13
mph
1013mb 70f 69f
4:50pm 0.7ft  -  3s 9 11 mph 1013.2mb 70f 70f
3:50pm 0.7ft  -  3s 7 11 mph 1013.6mb 71f 69f
2:50pm 0.7ft  -  3s 4 7 mph 1014.1mb 72f 69f
1:50pm 0.7ft  -  3s 2 4 mph 1014.8mb 73f 69f
12:50pm 0.7ft  -  3s 2 4 mph 1015.4mb 72f 67f
11:50am 0.7ft  -  3s 2 4 mph 1016.3mb 70f 67f
10:50am 0.7ft  -  3s 4
mph
1016.5mb 69f 67f
9:50am 0.7ft  -  3s 4
mph
1016.9mb 70f 67f
8:50am 0.7ft  -  3s 2
mph
1016.4mb 69f 67f
7:50am 0.7ft  -  3s 4 7 mph 1016.3mb 68f 66f
6:50am 0.7ft  -  4s 4
mph
1016mb 67f 66f
5:50am 0.7ft  -  3s 4
mph
1015.6mb 67f 66f
4:50am 0.7ft  -  3s 2 4 mph 1015mb 67f 66f
3:50am 0.7ft  -  3s 7 9 mph 1015.4mb 67f 66f
2:50am 0.7ft  -  3s 9
mph
1015.5mb 67f 66f
1:50am 0.7ft  -  3s 9
mph
1016mb 67f 66f
12:50am 0.7ft  -  3s 9 11 mph 1016.5mb 67f 66f
Mon 04/21 11:50pm 0.7ft  -  3s 7 9 mph 1016.5mb 68f 66f
10:50pm 0.7ft  -  3s 9
mph
1017mb 70f 66f
9:50pm 1ft 4s 3s 7 9 mph 1017.3mb 70f 66f
8:50pm 1ft 4s 3s 7
mph
1017.4mb 70f 66f
7:50pm 1ft 4s 3s 7
mph
1017.5mb 70f 66f
6:50pm 1.3ft 4s 3s 7
mph
1017.4mb 70f 66f
5:50pm 1.3ft 4s 4s 7
mph
1017.6mb 70f 66f
4:50pm 1.3ft 4s 4s 7 9 mph 1017.7mb 71f 66f
3:50pm 1.6ft 4s 4s 7 9 mph 1018.1mb 70f 65f
2:50pm 1.6ft 4s 4s 9 11 mph 1018.6mb 70f 65f
1:50pm 1.6ft 4s 4s 9 11 mph 1019.4mb 70f 65f
12:50pm 2ft 4s 4s 7 9 mph 1020.1mb 69f 65f
11:50am 2ft 5s 4s 9 11 mph 1020.7mb 69f 65f
10:50am 1.6ft 5s 4s 13 16 mph 1020.8mb 69f 65f
9:50am 2ft 5s 4s 9 11 mph 1021.3mb 68f 67f
8:50am 2ft 5s 4s 9 11 mph 1021mb 67f 66f
7:50am 2ft 5s 4s 11 13 mph 1020.8mb 67f 66f
6:50am 2ft 4s 4s 13 16 mph 1020.3mb 67f 66f
5:50am 2.5ft 4s 4s 11 13 mph 1019.9mb 67f 65f
4:50am 2ft 4s 4s 11 13 mph 1019.6mb 67f 64f
3:50am 2.5ft 4s 4s 11 13 mph 1019.2mb 67f 64f
2:50am 2.5ft 4s 4s 13 16 mph 1019.4mb 67f 64f
1:50am 2.5ft 4s 3s 13 18 mph 1019.8mb 67f 63f
12:50am 2ft 5s 4s 13 18 mph 1020.3mb 67f 62f
Sun 04/20 11:50pm 2ft 4s 4s 13 16 mph 1020.9mb 67f 63f
10:50pm 2ft 4s 4s 11 16 mph 1020.9mb 67f 63f
9:50pm 2ft 4s 3s 13 16 mph 1020.8mb 68f 63f
8:50pm 2.5ft 4s 4s 13 16 mph 1020.7mb 68f 63f
7:50pm 2.5ft 4s 4s 13 16 mph 1020.3mb 68f 63f
6:50pm 2.5ft 4s 3s 13 16 mph 1019.9mb 69f 63f
5:50pm 2.5ft 4s 4s 13 18 mph 1019.7mb 69f 62f
4:50pm 2.5ft 4s 4s 13 16 mph 1020mb 69f 62f
3:50pm 2.5ft 4s 4s 13 16 mph 1020.2mb 68f 62f
2:50pm 2.5ft 4s 4s 11 16 mph 1020.5mb 68f 62f
1:50pm 2.5ft 5s 4s 11 16 mph 1020.9mb 67f 62f